sensor_id;sensor_type;location;lat;lon;timestamp;temperature;humidity
4673;DHT22;61885;53.560;9.940;2023-07-31T00:00:34;15.80;91.30
4673;DHT22;61885;53.560;9.940;2023-07-31T00:03:05;15.80;90.50
4673;DHT22;61885;53.560;9.940;2023-07-31T00:05:37;15.90;90.80
4673;DHT22;61885;53.560;9.940;2023-07-31T00:08:09;15.90;90.00
4673;DHT22;61885;53.560;9.940;2023-07-31T00:10:45;15.90;90.40
4673;DHT22;61885;53.560;9.940;2023-07-31T00:13:17;15.90;90.30
4673;DHT22;61885;53.560;9.940;2023-07-31T00:15:47;16.00;90.20
4673;DHT22;61885;53.560;9.940;2023-07-31T00:18:19;16.00;90.10
4673;DHT22;61885;53.560;9.940;2023-07-31T00:20:49;15.90;90.10
4673;DHT22;61885;53.560;9.940;2023-07-31T00:23:18;15.80;90.00
4673;DHT22;61885;53.560;9.940;2023-07-31T00:25:51;15.90;90.10
4673;DHT22;61885;53.560;9.940;2023-07-31T00:28:25;15.90;89.70
4673;DHT22;61885;53.560;9.940;2023-07-31T00:30:59;15.80;89.10
4673;DHT22;61885;53.560;9.940;2023-07-31T00:33:40;15.90;89.00
4673;DHT22;61885;53.560;9.940;2023-07-31T00:36:11;15.90;88.70
4673;DHT22;61885;53.560;9.940;2023-07-31T00:38:41;15.90;88.60
4673;DHT22;61885;53.560;9.940;2023-07-31T00:41:14;16.00;88.20
4673;DHT22;61885;53.560;9.940;2023-07-31T00:43:51;15.80;87.80
4673;DHT22;61885;53.560;9.940;2023-07-31T00:46:22;15.90;88.70
4673;DHT22;61885;53.560;9.940;2023-07-31T00:48:52;15.80;88.20
4673;DHT22;61885;53.560;9.940;2023-07-31T00:51:30;15.90;88.40
4673;DHT22;61885;53.560;9.940;2023-07-31T00:54:02;15.90;88.60
4673;DHT22;61885;53.560;9.940;2023-07-31T00:56:37;15.80;88.20
4673;DHT22;61885;53.560;9.940;2023-07-31T00:59:07;15.90;88.70
4673;DHT22;61885;53.560;9.940;2023-07-31T01:01:38;15.90;88.80
4673;DHT22;61885;53.560;9.940;2023-07-31T01:04:12;15.90;88.80
4673;DHT22;61885;53.560;9.940;2023-07-31T01:06:47;15.80;88.90
4673;DHT22;61885;53.560;9.940;2023-07-31T01:09:26;15.80;89.00
4673;DHT22;61885;53.560;9.940;2023-07-31T01:12:03;15.90;89.20
4673;DHT22;61885;53.560;9.940;2023-07-31T01:14:35;15.80;89.40
4673;DHT22;61885;53.560;9.940;2023-07-31T01:17:07;15.80;89.30
4673;DHT22;61885;53.560;9.940;2023-07-31T01:19:39;15.80;89.70
4673;DHT22;61885;53.560;9.940;2023-07-31T01:22:28;15.70;89.70
4673;DHT22;61885;53.560;9.940;2023-07-31T01:25:15;15.80;90.10
4673;DHT22;61885;53.560;9.940;2023-07-31T01:27:59;15.80;90.40
4673;DHT22;61885;53.560;9.940;2023-07-31T01:30:33;15.70;90.60
4673;DHT22;61885;53.560;9.940;2023-07-31T01:33:05;15.70;91.00
4673;DHT22;61885;53.560;9.940;2023-07-31T01:35:36;15.70;91.00
4673;DHT22;61885;53.560;9.940;2023-07-31T01:38:10;15.70;90.90
4673;DHT22;61885;53.560;9.940;2023-07-31T01:40:43;15.70;91.00
4673;DHT22;61885;53.560;9.940;2023-07-31T01:43:17;15.60;91.30
4673;DHT22;61885;53.560;9.940;2023-07-31T01:45:54;15.70;91.30
4673;DHT22;61885;53.560;9.940;2023-07-31T01:48:26;15.70;91.60
4673;DHT22;61885;53.560;9.940;2023-07-31T01:51:00;15.70;91.60
4673;DHT22;61885;53.560;9.940;2023-07-31T01:53:31;15.80;91.40
4673;DHT22;61885;53.560;9.940;2023-07-31T01:56:00;15.70;91.70
4673;DHT22;61885;53.560;9.940;2023-07-31T01:58:36;15.80;92.00
4673;DHT22;61885;53.560;9.940;2023-07-31T02:01:08;15.70;91.70
4673;DHT22;61885;53.560;9.940;2023-07-31T02:03:43;15.80;91.90
4673;DHT22;61885;53.560;9.940;2023-07-31T02:06:19;15.80;91.70
4673;DHT22;61885;53.560;9.940;2023-07-31T02:08:49;15.70;92.10
4673;DHT22;61885;53.560;9.940;2023-07-31T02:11:24;15.70;92.10
4673;DHT22;61885;53.560;9.940;2023-07-31T02:13:56;15.80;91.80
4673;DHT22;61885;53.560;9.940;2023-07-31T02:16:39;15.80;92.10
4673;DHT22;61885;53.560;9.940;2023-07-31T02:19:11;15.90;92.00
4673;DHT22;61885;53.560;9.940;2023-07-31T02:21:46;15.80;91.80
4673;DHT22;61885;53.560;9.940;2023-07-31T02:24:21;15.80;91.50
4673;DHT22;61885;53.560;9.940;2023-07-31T02:26:55;15.80;91.80
4673;DHT22;61885;53.560;9.940;2023-07-31T02:29:27;15.80;91.80
4673;DHT22;61885;53.560;9.940;2023-07-31T02:32:11;15.80;91.80
4673;DHT22;61885;53.560;9.940;2023-07-31T02:34:41;15.80;92.10
4673;DHT22;61885;53.560;9.940;2023-07-31T02:37:10;15.80;92.00
4673;DHT22;61885;53.560;9.940;2023-07-31T02:39:44;15.70;92.10
4673;DHT22;61885;53.560;9.940;2023-07-31T02:42:15;15.70;92.40
4673;DHT22;61885;53.560;9.940;2023-07-31T02:44:50;15.80;92.40
4673;DHT22;61885;53.560;9.940;2023-07-31T02:47:30;15.80;92.50
4673;DHT22;61885;53.560;9.940;2023-07-31T02:49:59;15.80;92.50
4673;DHT22;61885;53.560;9.940;2023-07-31T02:52:33;15.80;92.70
4673;DHT22;61885;53.560;9.940;2023-07-31T02:55:05;15.70;92.80
4673;DHT22;61885;53.560;9.940;2023-07-31T02:57:37;15.80;92.80
4673;DHT22;61885;53.560;9.940;2023-07-31T03:00:20;15.80;92.80
4673;DHT22;61885;53.560;9.940;2023-07-31T03:02:55;15.70;93.00
4673;DHT22;61885;53.560;9.940;2023-07-31T03:05:26;15.70;93.10
4673;DHT22;61885;53.560;9.940;2023-07-31T03:07:58;15.70;93.10
4673;DHT22;61885;53.560;9.940;2023-07-31T03:10:28;15.70;93.30
4673;DHT22;61885;53.560;9.940;2023-07-31T03:12:59;15.70;93.30
4673;DHT22;61885;53.560;9.940;2023-07-31T03:15:32;15.80;93.40
4673;DHT22;61885;53.560;9.940;2023-07-31T03:18:10;15.80;93.40
4673;DHT22;61885;53.560;9.940;2023-07-31T03:20:44;15.70;93.40
4673;DHT22;61885;53.560;9.940;2023-07-31T03:23:14;15.70;93.20
4673;DHT22;61885;53.560;9.940;2023-07-31T03:25:56;15.70;93.70
4673;DHT22;61885;53.560;9.940;2023-07-31T03:28:26;15.80;93.50
4673;DHT22;61885;53.560;9.940;2023-07-31T03:30:59;15.80;93.40
4673;DHT22;61885;53.560;9.940;2023-07-31T03:33:28;15.70;93.20
4673;DHT22;61885;53.560;9.940;2023-07-31T03:35:59;15.80;93.20
4673;DHT22;61885;53.560;9.940;2023-07-31T03:38:30;15.80;92.90
4673;DHT22;61885;53.560;9.940;2023-07-31T03:41:00;15.80;92.90
4673;DHT22;61885;53.560;9.940;2023-07-31T03:43:29;15.80;93.00
4673;DHT22;61885;53.560;9.940;2023-07-31T03:46:04;15.90;92.80
4673;DHT22;61885;53.560;9.940;2023-07-31T03:48:35;15.90;93.00
4673;DHT22;61885;53.560;9.940;2023-07-31T03:51:06;15.90;92.90
4673;DHT22;61885;53.560;9.940;2023-07-31T03:53:35;15.90;93.10
4673;DHT22;61885;53.560;9.940;2023-07-31T03:56:07;15.90;93.00
4673;DHT22;61885;53.560;9.940;2023-07-31T03:58:40;15.90;93.10
4673;DHT22;61885;53.560;9.940;2023-07-31T04:01:13;15.90;93.20
4673;DHT22;61885;53.560;9.940;2023-07-31T04:03:43;15.90;93.30
4673;DHT22;61885;53.560;9.940;2023-07-31T04:06:15;16.00;93.40
4673;DHT22;61885;53.560;9.940;2023-07-31T04:08:53;16.00;93.20
4673;DHT22;61885;53.560;9.940;2023-07-31T04:11:24;15.90;93.00
4673;DHT22;61885;53.560;9.940;2023-07-31T04:13:54;15.90;93.40
4673;DHT22;61885;53.560;9.940;2023-07-31T04:16:27;15.90;93.50
4673;DHT22;61885;53.560;9.940;2023-07-31T04:18:56;15.70;93.70
4673;DHT22;61885;53.560;9.940;2023-07-31T04:21:33;15.80;94.10
4673;DHT22;61885;53.560;9.940;2023-07-31T04:24:03;15.80;94.40
4673;DHT22;61885;53.560;9.940;2023-07-31T04:26:33;15.70;94.80
4673;DHT22;61885;53.560;9.940;2023-07-31T04:29:03;15.70;95.00
4673;DHT22;61885;53.560;9.940;2023-07-31T04:31:35;15.70;95.70
4673;DHT22;61885;53.560;9.940;2023-07-31T04:34:05;15.60;95.90
4673;DHT22;61885;53.560;9.940;2023-07-31T04:36:35;15.60;96.00
4673;DHT22;61885;53.560;9.940;2023-07-31T04:39:04;15.50;96.20
4673;DHT22;61885;53.560;9.940;2023-07-31T04:41:36;15.60;96.50
4673;DHT22;61885;53.560;9.940;2023-07-31T04:44:06;15.50;96.90
4673;DHT22;61885;53.560;9.940;2023-07-31T04:46:40;15.50;96.70
4673;DHT22;61885;53.560;9.940;2023-07-31T04:49:20;15.50;97.10
4673;DHT22;61885;53.560;9.940;2023-07-31T04:51:50;15.50;97.30
4673;DHT22;61885;53.560;9.940;2023-07-31T04:54:21;15.40;97.50
4673;DHT22;61885;53.560;9.940;2023-07-31T04:56:51;15.50;97.70
4673;DHT22;61885;53.560;9.940;2023-07-31T04:59:23;15.40;98.10
4673;DHT22;61885;53.560;9.940;2023-07-31T05:01:55;15.40;98.40
4673;DHT22;61885;53.560;9.940;2023-07-31T05:04:25;15.40;98.40
4673;DHT22;61885;53.560;9.940;2023-07-31T05:06:56;15.30;98.70
4673;DHT22;61885;53.560;9.940;2023-07-31T05:09:26;15.40;98.70
4673;DHT22;61885;53.560;9.940;2023-07-31T05:11:56;15.40;98.90
4673;DHT22;61885;53.560;9.940;2023-07-31T05:14:26;15.30;98.70
4673;DHT22;61885;53.560;9.940;2023-07-31T05:16:58;15.30;98.70
4673;DHT22;61885;53.560;9.940;2023-07-31T05:19:28;15.40;98.90
4673;DHT22;61885;53.560;9.940;2023-07-31T05:22:01;15.30;98.70
4673;DHT22;61885;53.560;9.940;2023-07-31T05:24:31;15.30;98.90
4673;DHT22;61885;53.560;9.940;2023-07-31T05:27:02;15.30;99.00
4673;DHT22;61885;53.560;9.940;2023-07-31T05:29:32;15.40;98.90
4673;DHT22;61885;53.560;9.940;2023-07-31T05:32:05;15.30;99.00
4673;DHT22;61885;53.560;9.940;2023-07-31T05:34:35;15.30;99.10
4673;DHT22;61885;53.560;9.940;2023-07-31T05:37:05;15.40;99.30
4673;DHT22;61885;53.560;9.940;2023-07-31T05:39:37;15.30;99.20
4673;DHT22;61885;53.560;9.940;2023-07-31T05:42:06;15.40;99.40
4673;DHT22;61885;53.560;9.940;2023-07-31T05:44:36;15.30;99.40
4673;DHT22;61885;53.560;9.940;2023-07-31T05:47:08;15.30;99.50
4673;DHT22;61885;53.560;9.940;2023-07-31T05:49:40;15.30;99.60
4673;DHT22;61885;53.560;9.940;2023-07-31T05:52:09;15.20;99.70
4673;DHT22;61885;53.560;9.940;2023-07-31T05:54:39;15.30;99.70
4673;DHT22;61885;53.560;9.940;2023-07-31T05:57:09;15.40;99.80
4673;DHT22;61885;53.560;9.940;2023-07-31T05:59:40;15.40;99.70
4673;DHT22;61885;53.560;9.940;2023-07-31T06:02:12;15.50;99.30
4673;DHT22;61885;53.560;9.940;2023-07-31T06:04:43;15.50;99.00
4673;DHT22;61885;53.560;9.940;2023-07-31T06:07:13;15.50;98.90
4673;DHT22;61885;53.560;9.940;2023-07-31T06:09:43;15.50;99.00
4673;DHT22;61885;53.560;9.940;2023-07-31T06:12:13;15.50;99.00
4673;DHT22;61885;53.560;9.940;2023-07-31T06:14:51;15.60;99.10
4673;DHT22;61885;53.560;9.940;2023-07-31T06:17:26;15.50;98.80
4673;DHT22;61885;53.560;9.940;2023-07-31T06:19:56;15.50;98.70
4673;DHT22;61885;53.560;9.940;2023-07-31T06:22:27;15.60;98.90
4673;DHT22;61885;53.560;9.940;2023-07-31T06:25:01;15.60;98.80
4673;DHT22;61885;53.560;9.940;2023-07-31T06:27:35;15.60;98.80
4673;DHT22;61885;53.560;9.940;2023-07-31T06:30:06;15.60;98.90
4673;DHT22;61885;53.560;9.940;2023-07-31T06:32:38;15.70;98.90
4673;DHT22;61885;53.560;9.940;2023-07-31T06:35:09;15.70;98.90
4673;DHT22;61885;53.560;9.940;2023-07-31T06:37:39;15.70;98.90
4673;DHT22;61885;53.560;9.940;2023-07-31T06:40:11;15.60;98.80
4673;DHT22;61885;53.560;9.940;2023-07-31T06:42:43;15.60;98.70
4673;DHT22;61885;53.560;9.940;2023-07-31T06:45:17;15.60;98.90
4673;DHT22;61885;53.560;9.940;2023-07-31T06:47:51;15.60;98.90
4673;DHT22;61885;53.560;9.940;2023-07-31T06:50:22;15.60;99.00
4673;DHT22;61885;53.560;9.940;2023-07-31T06:52:52;15.60;98.90
4673;DHT22;61885;53.560;9.940;2023-07-31T06:55:26;15.70;99.00
4673;DHT22;61885;53.560;9.940;2023-07-31T06:57:58;15.60;99.00
4673;DHT22;61885;53.560;9.940;2023-07-31T07:00:33;15.60;98.80
4673;DHT22;61885;53.560;9.940;2023-07-31T07:03:06;15.60;99.10
4673;DHT22;61885;53.560;9.940;2023-07-31T07:05:35;15.60;99.10
4673;DHT22;61885;53.560;9.940;2023-07-31T07:08:06;15.80;99.20
4673;DHT22;61885;53.560;9.940;2023-07-31T07:10:39;15.70;99.00
4673;DHT22;61885;53.560;9.940;2023-07-31T07:13:10;15.70;99.00
4673;DHT22;61885;53.560;9.940;2023-07-31T07:15:43;15.80;99.10
4673;DHT22;61885;53.560;9.940;2023-07-31T07:18:15;15.80;99.10
4673;DHT22;61885;53.560;9.940;2023-07-31T07:20:51;15.70;99.30
4673;DHT22;61885;53.560;9.940;2023-07-31T07:23:24;15.80;99.30
4673;DHT22;61885;53.560;9.940;2023-07-31T07:25:58;15.80;99.30
4673;DHT22;61885;53.560;9.940;2023-07-31T07:28:32;15.80;99.20
4673;DHT22;61885;53.560;9.940;2023-07-31T07:31:15;15.80;99.50
4673;DHT22;61885;53.560;9.940;2023-07-31T07:33:48;15.80;99.50
4673;DHT22;61885;53.560;9.940;2023-07-31T07:36:19;15.90;99.40
4673;DHT22;61885;53.560;9.940;2023-07-31T07:38:51;16.00;99.50
4673;DHT22;61885;53.560;9.940;2023-07-31T07:41:20;16.00;99.50
4673;DHT22;61885;53.560;9.940;2023-07-31T07:43:50;16.10;99.20
4673;DHT22;61885;53.560;9.940;2023-07-31T07:46:20;16.00;99.30
4673;DHT22;61885;53.560;9.940;2023-07-31T07:48:52;16.00;99.40
4673;DHT22;61885;53.560;9.940;2023-07-31T07:51:22;16.00;99.30
4673;DHT22;61885;53.560;9.940;2023-07-31T07:53:51;16.10;99.40
4673;DHT22;61885;53.560;9.940;2023-07-31T07:56:21;16.20;99.00
4673;DHT22;61885;53.560;9.940;2023-07-31T07:58:55;16.20;99.30
4673;DHT22;61885;53.560;9.940;2023-07-31T08:01:25;16.30;99.00
4673;DHT22;61885;53.560;9.940;2023-07-31T08:04:01;16.50;98.50
4673;DHT22;61885;53.560;9.940;2023-07-31T08:06:30;16.50;98.20
4673;DHT22;61885;53.560;9.940;2023-07-31T08:09:02;16.50;97.90
4673;DHT22;61885;53.560;9.940;2023-07-31T08:11:33;16.50;98.30
4673;DHT22;61885;53.560;9.940;2023-07-31T08:14:02;16.70;98.10
4673;DHT22;61885;53.560;9.940;2023-07-31T08:16:32;16.70;97.50
4673;DHT22;61885;53.560;9.940;2023-07-31T08:19:05;16.70;97.50
4673;DHT22;61885;53.560;9.940;2023-07-31T08:21:35;16.70;97.80
4673;DHT22;61885;53.560;9.940;2023-07-31T08:24:05;16.70;97.70
4673;DHT22;61885;53.560;9.940;2023-07-31T08:26:35;16.70;97.70
4673;DHT22;61885;53.560;9.940;2023-07-31T08:29:04;16.90;97.20
4673;DHT22;61885;53.560;9.940;2023-07-31T08:31:34;16.90;97.40
4673;DHT22;61885;53.560;9.940;2023-07-31T08:34:07;17.00;97.00
4673;DHT22;61885;53.560;9.940;2023-07-31T08:36:44;17.20;96.80
4673;DHT22;61885;53.560;9.940;2023-07-31T08:39:14;17.20;95.80
4673;DHT22;61885;53.560;9.940;2023-07-31T08:41:44;17.10;96.60
4673;DHT22;61885;53.560;9.940;2023-07-31T08:44:14;17.20;96.50
4673;DHT22;61885;53.560;9.940;2023-07-31T08:46:46;17.30;95.30
4673;DHT22;61885;53.560;9.940;2023-07-31T08:49:20;17.30;95.70
4673;DHT22;61885;53.560;9.940;2023-07-31T08:51:52;17.20;95.40
4673;DHT22;61885;53.560;9.940;2023-07-31T08:54:25;17.20;96.00
4673;DHT22;61885;53.560;9.940;2023-07-31T08:56:59;17.30;95.10
4673;DHT22;61885;53.560;9.940;2023-07-31T08:59:31;17.20;94.90
4673;DHT22;61885;53.560;9.940;2023-07-31T09:02:05;17.10;95.50
4673;DHT22;61885;53.560;9.940;2023-07-31T09:04:38;17.10;95.20
4673;DHT22;61885;53.560;9.940;2023-07-31T09:07:12;17.00;95.20
4673;DHT22;61885;53.560;9.940;2023-07-31T09:09:41;16.90;95.60
4673;DHT22;61885;53.560;9.940;2023-07-31T09:12:13;16.90;95.90
4673;DHT22;61885;53.560;9.940;2023-07-31T09:14:45;16.90;96.20
4673;DHT22;61885;53.560;9.940;2023-07-31T09:17:28;17.00;96.60
4673;DHT22;61885;53.560;9.940;2023-07-31T09:20:13;16.90;95.80
4673;DHT22;61885;53.560;9.940;2023-07-31T09:22:45;16.90;96.30
4673;DHT22;61885;53.560;9.940;2023-07-31T09:25:16;16.90;95.80
4673;DHT22;61885;53.560;9.940;2023-07-31T09:27:47;16.80;96.60
4673;DHT22;61885;53.560;9.940;2023-07-31T09:30:20;17.00;96.90
4673;DHT22;61885;53.560;9.940;2023-07-31T09:32:52;17.20;96.70
4673;DHT22;61885;53.560;9.940;2023-07-31T09:35:32;17.20;95.60
4673;DHT22;61885;53.560;9.940;2023-07-31T09:38:09;17.30;96.20
4673;DHT22;61885;53.560;9.940;2023-07-31T09:40:45;17.50;94.60
4673;DHT22;61885;53.560;9.940;2023-07-31T09:43:19;17.20;94.40
4673;DHT22;61885;53.560;9.940;2023-07-31T09:45:56;17.30;94.90
4673;DHT22;61885;53.560;9.940;2023-07-31T09:48:26;17.50;95.00
4673;DHT22;61885;53.560;9.940;2023-07-31T09:51:04;17.30;95.10
4673;DHT22;61885;53.560;9.940;2023-07-31T09:53:34;17.30;95.90
4673;DHT22;61885;53.560;9.940;2023-07-31T09:56:06;17.30;96.40
4673;DHT22;61885;53.560;9.940;2023-07-31T09:58:35;17.20;96.20
4673;DHT22;61885;53.560;9.940;2023-07-31T10:01:05;17.20;96.80
4673;DHT22;61885;53.560;9.940;2023-07-31T10:03:36;17.10;96.50
4673;DHT22;61885;53.560;9.940;2023-07-31T10:06:10;17.20;97.00
4673;DHT22;61885;53.560;9.940;2023-07-31T10:08:45;17.20;96.80
4673;DHT22;61885;53.560;9.940;2023-07-31T10:11:22;17.20;96.30
4673;DHT22;61885;53.560;9.940;2023-07-31T10:13:56;17.30;96.40
4673;DHT22;61885;53.560;9.940;2023-07-31T10:16:26;17.30;95.80
4673;DHT22;61885;53.560;9.940;2023-07-31T10:18:56;17.30;96.30
4673;DHT22;61885;53.560;9.940;2023-07-31T10:21:29;17.40;96.20
4673;DHT22;61885;53.560;9.940;2023-07-31T10:24:05;17.40;96.30
4673;DHT22;61885;53.560;9.940;2023-07-31T10:26:35;17.40;95.70
4673;DHT22;61885;53.560;9.940;2023-07-31T10:29:08;17.20;96.40
4673;DHT22;61885;53.560;9.940;2023-07-31T10:31:40;17.20;96.80
4673;DHT22;61885;53.560;9.940;2023-07-31T10:34:10;17.10;96.70
4673;DHT22;61885;53.560;9.940;2023-07-31T10:36:44;17.10;96.50
4673;DHT22;61885;53.560;9.940;2023-07-31T10:39:35;17.10;96.70
4673;DHT22;61885;53.560;9.940;2023-07-31T10:42:31;17.20;96.50
4673;DHT22;61885;53.560;9.940;2023-07-31T10:45:08;17.10;96.20
4673;DHT22;61885;53.560;9.940;2023-07-31T10:47:43;17.10;96.70
4673;DHT22;61885;53.560;9.940;2023-07-31T10:50:20;16.90;97.10
4673;DHT22;61885;53.560;9.940;2023-07-31T10:52:54;16.80;97.20
4673;DHT22;61885;53.560;9.940;2023-07-31T10:55:52;16.80;97.50
4673;DHT22;61885;53.560;9.940;2023-07-31T10:58:34;16.70;97.80
4673;DHT22;61885;53.560;9.940;2023-07-31T11:01:06;16.70;97.80
4673;DHT22;61885;53.560;9.940;2023-07-31T11:03:43;16.80;97.80
4673;DHT22;61885;53.560;9.940;2023-07-31T11:06:13;16.80;98.00
4673;DHT22;61885;53.560;9.940;2023-07-31T11:08:48;16.80;98.40
4673;DHT22;61885;53.560;9.940;2023-07-31T11:11:21;16.90;98.40
4673;DHT22;61885;53.560;9.940;2023-07-31T11:13:52;16.90;98.80
4673;DHT22;61885;53.560;9.940;2023-07-31T11:16:24;17.00;98.50
4673;DHT22;61885;53.560;9.940;2023-07-31T11:19:08;17.00;98.30
4673;DHT22;61885;53.560;9.940;2023-07-31T11:21:38;17.00;98.50
4673;DHT22;61885;53.560;9.940;2023-07-31T11:24:16;17.10;98.40
4673;DHT22;61885;53.560;9.940;2023-07-31T11:26:50;17.00;98.50
4673;DHT22;61885;53.560;9.940;2023-07-31T11:29:21;17.00;98.70
4673;DHT22;61885;53.560;9.940;2023-07-31T11:31:59;17.10;98.70
4673;DHT22;61885;53.560;9.940;2023-07-31T11:34:29;17.00;98.30
4673;DHT22;61885;53.560;9.940;2023-07-31T11:37:01;17.00;98.70
4673;DHT22;61885;53.560;9.940;2023-07-31T11:39:34;17.10;98.40
4673;DHT22;61885;53.560;9.940;2023-07-31T11:42:12;16.70;97.90
4673;DHT22;61885;53.560;9.940;2023-07-31T11:44:49;16.60;98.50
4673;DHT22;61885;53.560;9.940;2023-07-31T11:47:23;16.40;98.90
4673;DHT22;61885;53.560;9.940;2023-07-31T11:52:36;16.40;99.20
4673;DHT22;61885;53.560;9.940;2023-07-31T11:55:12;16.40;99.50
4673;DHT22;61885;53.560;9.940;2023-07-31T11:57:56;16.30;99.50
4673;DHT22;61885;53.560;9.940;2023-07-31T12:00:33;16.40;99.80
4673;DHT22;61885;53.560;9.940;2023-07-31T12:03:07;16.40;99.90
4673;DHT22;61885;53.560;9.940;2023-07-31T12:05:44;16.30;99.90
4673;DHT22;61885;53.560;9.940;2023-07-31T12:08:24;16.30;99.90
4673;DHT22;61885;53.560;9.940;2023-07-31T12:11:05;16.20;99.90
4673;DHT22;61885;53.560;9.940;2023-07-31T12:13:37;16.10;99.70
4673;DHT22;61885;53.560;9.940;2023-07-31T12:16:16;16.20;99.90
4673;DHT22;61885;53.560;9.940;2023-07-31T12:18:59;16.30;99.90
4673;DHT22;61885;53.560;9.940;2023-07-31T12:21:38;16.30;99.80
4673;DHT22;61885;53.560;9.940;2023-07-31T12:24:21;16.40;99.90
4673;DHT22;61885;53.560;9.940;2023-07-31T12:26:58;16.40;99.70
4673;DHT22;61885;53.560;9.940;2023-07-31T12:29:35;16.30;99.80
4673;DHT22;61885;53.560;9.940;2023-07-31T12:32:21;16.40;99.80
4673;DHT22;61885;53.560;9.940;2023-07-31T12:34:51;16.40;99.90
4673;DHT22;61885;53.560;9.940;2023-07-31T12:37:21;16.30;99.90
4673;DHT22;61885;53.560;9.940;2023-07-31T12:39:53;16.40;99.90
4673;DHT22;61885;53.560;9.940;2023-07-31T12:42:34;16.50;99.70
4673;DHT22;61885;53.560;9.940;2023-07-31T12:45:08;16.60;99.50
4673;DHT22;61885;53.560;9.940;2023-07-31T12:47:38;16.70;99.50
4673;DHT22;61885;53.560;9.940;2023-07-31T12:50:10;16.90;99.20
4673;DHT22;61885;53.560;9.940;2023-07-31T12:52:45;16.70;99.30
4673;DHT22;61885;53.560;9.940;2023-07-31T12:55:15;16.60;98.70
4673;DHT22;61885;53.560;9.940;2023-07-31T12:57:47;16.50;99.10
4673;DHT22;61885;53.560;9.940;2023-07-31T13:00:20;16.40;99.60
4673;DHT22;61885;53.560;9.940;2023-07-31T13:02:53;16.50;99.60
4673;DHT22;61885;53.560;9.940;2023-07-31T13:05:26;16.60;99.60
4673;DHT22;61885;53.560;9.940;2023-07-31T13:07:58;16.50;99.20
4673;DHT22;61885;53.560;9.940;2023-07-31T13:10:35;16.50;99.10
4673;DHT22;61885;53.560;9.940;2023-07-31T13:13:12;16.30;99.60
4673;DHT22;61885;53.560;9.940;2023-07-31T13:15:43;16.20;99.90
4673;DHT22;61885;53.560;9.940;2023-07-31T13:20:48;16.40;99.90
4673;DHT22;61885;53.560;9.940;2023-07-31T13:23:27;16.50;99.90
4673;DHT22;61885;53.560;9.940;2023-07-31T13:26:08;16.60;99.90
4673;DHT22;61885;53.560;9.940;2023-07-31T13:28:46;16.60;99.90
4673;DHT22;61885;53.560;9.940;2023-07-31T13:31:17;16.60;99.90
4673;DHT22;61885;53.560;9.940;2023-07-31T13:33:49;16.70;99.90
4673;DHT22;61885;53.560;9.940;2023-07-31T13:36:19;16.50;99.90
4673;DHT22;61885;53.560;9.940;2023-07-31T13:39:09;16.60;99.90
4673;DHT22;61885;53.560;9.940;2023-07-31T13:41:46;16.80;99.90
4673;DHT22;61885;53.560;9.940;2023-07-31T13:44:31;16.90;99.90
4673;DHT22;61885;53.560;9.940;2023-07-31T13:47:08;16.90;99.90
4673;DHT22;61885;53.560;9.940;2023-07-31T13:50:01;16.90;99.90
4673;DHT22;61885;53.560;9.940;2023-07-31T13:52:45;17.00;99.90
4673;DHT22;61885;53.560;9.940;2023-07-31T13:55:37;17.00;99.90
4673;DHT22;61885;53.560;9.940;2023-07-31T13:58:07;17.10;99.90
4673;DHT22;61885;53.560;9.940;2023-07-31T14:00:46;17.10;99.90
4673;DHT22;61885;53.560;9.940;2023-07-31T14:03:21;17.30;99.90
4673;DHT22;61885;53.560;9.940;2023-07-31T14:05:57;17.30;99.90
4673;DHT22;61885;53.560;9.940;2023-07-31T14:08:32;17.30;99.90
4673;DHT22;61885;53.560;9.940;2023-07-31T14:11:15;17.50;99.90
4673;DHT22;61885;53.560;9.940;2023-07-31T14:13:45;17.60;99.90
4673;DHT22;61885;53.560;9.940;2023-07-31T14:16:20;17.80;99.90
4673;DHT22;61885;53.560;9.940;2023-07-31T14:18:59;17.80;99.90
4673;DHT22;61885;53.560;9.940;2023-07-31T14:21:29;17.80;99.90
4673;DHT22;61885;53.560;9.940;2023-07-31T14:24:02;17.80;99.90
4673;DHT22;61885;53.560;9.940;2023-07-31T14:26:32;17.80;99.90
4673;DHT22;61885;53.560;9.940;2023-07-31T14:29:05;18.00;99.90
4673;DHT22;61885;53.560;9.940;2023-07-31T14:31:38;17.80;99.90
4673;DHT22;61885;53.560;9.940;2023-07-31T14:34:08;17.80;99.90
4673;DHT22;61885;53.560;9.940;2023-07-31T14:36:39;18.00;99.90
4673;DHT22;61885;53.560;9.940;2023-07-31T14:39:11;17.90;99.90
4673;DHT22;61885;53.560;9.940;2023-07-31T14:41:41;17.90;99.90
4673;DHT22;61885;53.560;9.940;2023-07-31T14:44:12;18.00;99.90
4673;DHT22;61885;53.560;9.940;2023-07-31T14:46:49;17.80;99.90
4673;DHT22;61885;53.560;9.940;2023-07-31T14:49:19;17.80;99.90
4673;DHT22;61885;53.560;9.940;2023-07-31T14:51:51;17.70;99.90
4673;DHT22;61885;53.560;9.940;2023-07-31T14:54:24;17.80;99.90
4673;DHT22;61885;53.560;9.940;2023-07-31T14:56:56;17.70;99.90
4673;DHT22;61885;53.560;9.940;2023-07-31T14:59:27;17.90;99.90
4673;DHT22;61885;53.560;9.940;2023-07-31T15:02:01;17.90;99.90
4673;DHT22;61885;53.560;9.940;2023-07-31T15:04:38;17.80;99.90
4673;DHT22;61885;53.560;9.940;2023-07-31T15:07:09;17.90;99.90
4673;DHT22;61885;53.560;9.940;2023-07-31T15:09:47;17.80;99.90
4673;DHT22;61885;53.560;9.940;2023-07-31T15:12:34;17.70;99.90
4673;DHT22;61885;53.560;9.940;2023-07-31T15:15:06;17.90;99.90
4673;DHT22;61885;53.560;9.940;2023-07-31T15:20:45;18.00;99.90
4673;DHT22;61885;53.560;9.940;2023-07-31T15:23:31;18.00;99.90
4673;DHT22;61885;53.560;9.940;2023-07-31T15:26:04;18.00;99.90
4673;DHT22;61885;53.560;9.940;2023-07-31T15:28:36;18.10;99.90
4673;DHT22;61885;53.560;9.940;2023-07-31T15:31:07;18.10;99.90
4673;DHT22;61885;53.560;9.940;2023-07-31T15:33:45;18.10;99.90
4673;DHT22;61885;53.560;9.940;2023-07-31T15:36:19;18.10;99.90
4673;DHT22;61885;53.560;9.940;2023-07-31T15:39:05;18.10;99.90
4673;DHT22;61885;53.560;9.940;2023-07-31T15:41:57;18.00;99.90
4673;DHT22;61885;53.560;9.940;2023-07-31T15:44:44;18.00;99.90
4673;DHT22;61885;53.560;9.940;2023-07-31T15:47:16;18.00;99.90
4673;DHT22;61885;53.560;9.940;2023-07-31T15:49:59;18.00;99.90
4673;DHT22;61885;53.560;9.940;2023-07-31T15:52:31;17.90;99.90
4673;DHT22;61885;53.560;9.940;2023-07-31T15:55:01;17.90;99.90
4673;DHT22;61885;53.560;9.940;2023-07-31T15:57:39;17.70;99.90
4673;DHT22;61885;53.560;9.940;2023-07-31T16:00:22;17.70;99.90
4673;DHT22;61885;53.560;9.940;2023-07-31T16:02:55;17.70;99.90
4673;DHT22;61885;53.560;9.940;2023-07-31T16:05:34;17.70;99.90
4673;DHT22;61885;53.560;9.940;2023-07-31T16:08:16;17.80;99.90
4673;DHT22;61885;53.560;9.940;2023-07-31T16:11:12;17.70;99.90
4673;DHT22;61885;53.560;9.940;2023-07-31T16:13:54;17.70;99.90
4673;DHT22;61885;53.560;9.940;2023-07-31T16:16:27;17.60;99.90
4673;DHT22;61885;53.560;9.940;2023-07-31T16:19:02;17.60;99.90
4673;DHT22;61885;53.560;9.940;2023-07-31T16:29:45;17.70;99.90
4673;DHT22;61885;53.560;9.940;2023-07-31T16:32:28;17.60;99.90
4673;DHT22;61885;53.560;9.940;2023-07-31T16:35:16;17.60;99.90
4673;DHT22;61885;53.560;9.940;2023-07-31T16:54:06;17.50;99.90
4673;DHT22;61885;53.560;9.940;2023-07-31T16:57:01;17.50;99.90
4673;DHT22;61885;53.560;9.940;2023-07-31T16:59:38;17.50;99.90